createdAt,value
2022-12-06T00:01:28.958Z,112.68
2022-12-06T00:06:34.864Z,142.63
2022-12-06T00:11:39.565Z,98.30
2022-12-06T00:16:43.017Z,110.78
2022-12-06T00:21:47.384Z,93.70
2022-12-06T00:26:53.071Z,154.38
2022-12-06T00:31:56.844Z,97.97
2022-12-06T00:37:00.261Z,102.28
2022-12-06T00:42:05.152Z,107.45
2022-12-06T00:47:08.518Z,108.88
2022-12-06T00:52:11.937Z,106.22
2022-12-06T00:57:16.915Z,103.50
2022-12-06T01:02:20.303Z,101.65
2022-12-06T01:07:23.718Z,99.03
2022-12-06T01:12:28.427Z,105.57
2022-12-06T01:17:31.789Z,194.25
2022-12-06T01:22:35.800Z,110.22
2022-12-06T01:27:40.497Z,110.05
2022-12-06T01:32:43.995Z,100.75
2022-12-06T01:37:47.375Z,114.85
2022-12-06T01:42:52.119Z,91.85
2022-12-06T01:47:55.642Z,99.82
2022-12-06T01:53:02.553Z,77.57
2022-12-06T01:58:12.234Z,84.30
2022-12-06T02:03:23.816Z,84.40
2022-12-06T02:08:28.857Z,81.45
2022-12-06T02:13:35.719Z,105.40
2022-12-06T02:18:47.018Z,78.10
2022-12-06T02:24:31.086Z,77.95
2022-12-06T02:30:12.996Z,66.65
2022-12-06T02:35:27.001Z,81.28
2022-12-06T02:40:34.114Z,68.57
2022-12-06T02:45:41.728Z,66.05
2022-12-06T02:50:50.759Z,63.40
2022-12-06T02:55:55.096Z,63.75
2022-12-06T03:08:18.646Z,56.97
2022-12-06T03:13:27.404Z,61.72
2022-12-06T03:18:37.590Z,57.90
2022-12-06T03:23:45.093Z,64.00
2022-12-06T03:28:50.505Z,61.35
2022-12-06T03:33:58.618Z,52.95
2022-12-06T03:39:06.130Z,58.45
2022-12-06T03:44:09.556Z,50.28
2022-12-06T03:49:17.498Z,42.53
2022-12-06T03:54:22.229Z,45.25
2022-12-06T03:59:25.636Z,48.88
2022-12-06T04:04:29.016Z,51.15
2022-12-06T04:09:51.076Z,55.80
2022-12-06T04:14:54.450Z,54.47
2022-12-06T04:19:57.779Z,50.88
2022-12-06T04:25:02.494Z,50.67
2022-12-06T04:30:25.715Z,45.72
2022-12-06T04:35:46.751Z,43.05
2022-12-06T04:40:51.544Z,51.90
2022-12-06T04:45:54.895Z,46.35
2022-12-06T04:50:58.276Z,42.10
2022-12-06T04:56:02.979Z,49.50
2022-12-06T05:01:06.496Z,48.28
2022-12-06T05:06:09.941Z,46.47
2022-12-06T05:11:14.689Z,56.30
2022-12-06T05:16:18.251Z,62.60
2022-12-06T05:21:23.981Z,64.75
2022-12-06T05:26:30.198Z,56.20
2022-12-06T05:31:33.670Z,73.20
2022-12-06T05:36:37.166Z,57.17
2022-12-06T05:41:42.021Z,59.55
2022-12-06T05:46:45.370Z,53.55
2022-12-06T05:51:48.802Z,63.83
2022-12-06T05:56:53.559Z,48.60
2022-12-06T06:01:57.142Z,45.95
2022-12-06T06:07:00.964Z,48.47
2022-12-06T06:12:12.125Z,46.10
2022-12-06T06:17:15.936Z,44.80
2022-12-06T06:22:20.088Z,42.17
2022-12-06T06:27:24.966Z,68.30
2022-12-06T06:32:28.347Z,45.90
2022-12-06T06:37:33.070Z,40.88
2022-12-06T06:42:37.914Z,45.72
2022-12-06T06:47:41.360Z,43.63
2022-12-06T06:52:44.725Z,46.60
2022-12-06T06:57:49.504Z,50.70
2022-12-06T07:02:53.133Z,60.33
2022-12-06T07:07:57.854Z,66.25
2022-12-06T07:13:02.627Z,58.80
2022-12-06T07:18:06.038Z,60.45
2022-12-06T07:23:09.453Z,66.97
2022-12-06T07:28:14.206Z,61.22
2022-12-06T07:33:17.582Z,88.75
2022-12-06T07:38:21.437Z,73.82
2022-12-06T07:43:43.442Z,59.45
2022-12-06T07:48:46.820Z,72.07
2022-12-06T07:53:50.204Z,75.65
2022-12-06T07:58:54.978Z,62.85
2022-12-06T08:04:00.784Z,62.95
2022-12-06T08:09:05.220Z,67.85
2022-12-06T08:14:10.920Z,78.40
2022-12-06T08:19:14.354Z,72.53
2022-12-06T08:24:17.795Z,57.58
2022-12-06T08:29:23.174Z,66.47
2022-12-06T08:34:26.563Z,57.70
2022-12-06T08:39:30.031Z,57.00
2022-12-06T08:44:36.488Z,63.63
2022-12-06T08:49:39.988Z,66.13
2022-12-06T08:54:43.449Z,82.70
2022-12-06T08:59:48.234Z,81.85
2022-12-06T09:04:52.199Z,60.85
2022-12-06T09:09:55.640Z,69.65
2022-12-06T09:15:00.409Z,47.05
2022-12-06T09:20:06.142Z,51.58
2022-12-06T09:25:10.425Z,53.97
2022-12-06T09:30:15.642Z,59.95
2022-12-06T09:35:24.745Z,53.72
2022-12-06T09:45:50.357Z,58.33
2022-12-06T09:51:07.711Z,72.28
2022-12-06T09:56:20.867Z,59.85
2022-12-06T10:01:36.013Z,72.22
2022-12-06T10:06:45.714Z,84.97
2022-12-06T10:12:08.356Z,70.60
2022-12-06T10:17:22.405Z,75.43
2022-12-06T10:22:47.284Z,74.47
2022-12-06T10:28:01.312Z,87.80
2022-12-06T10:33:14.652Z,63.28
2022-12-06T10:38:26.675Z,53.20
2022-12-06T10:43:37.641Z,57.25
2022-12-06T10:48:52.788Z,41.20
2022-12-06T10:54:14.391Z,38.85
2022-12-06T10:59:28.860Z,41.72
2022-12-06T11:04:37.944Z,38.72
2022-12-06T11:09:44.198Z,45.95
2022-12-06T11:14:53.891Z,43.53
2022-12-06T11:20:02.765Z,27.88
2022-12-06T11:25:16.297Z,27.48
2022-12-06T11:30:21.404Z,29.30
2022-12-06T11:35:29.567Z,42.97
2022-12-06T11:40:37.100Z,37.28
2022-12-06T11:45:45.458Z,30.02
2022-12-06T11:50:52.386Z,29.95
2022-12-06T11:55:59.379Z,32.20
2022-12-06T12:01:05.464Z,36.90
2022-12-06T12:06:22.795Z,37.28
2022-12-06T12:11:29.703Z,27.58
2022-12-06T12:16:37.510Z,31.58
2022-12-06T12:21:44.024Z,49.30
2022-12-06T12:26:47.576Z,27.65
2022-12-06T12:31:57.074Z,50.83
2022-12-06T12:37:04.821Z,39.10
2022-12-06T12:42:28.129Z,40.22
2022-12-06T12:47:32.841Z,53.75
2022-12-06T12:52:40.254Z,60.25
2022-12-06T12:57:46.363Z,52.08
2022-12-06T13:02:54.327Z,37.20
2022-12-06T13:08:05.875Z,29.65
2022-12-06T13:13:17.843Z,33.72
2022-12-06T13:18:24.611Z,28.50
2022-12-06T13:23:35.009Z,35.50
2022-12-06T13:28:52.502Z,33.97
2022-12-06T13:34:00.366Z,42.65
2022-12-06T13:39:36.593Z,40.92
2022-12-06T13:44:41.790Z,46.13
2022-12-06T13:49:48.923Z,32.60
2022-12-06T13:54:54.142Z,28.75
2022-12-06T13:59:58.477Z,30.13
2022-12-06T14:05:03.878Z,27.77
2022-12-06T14:10:14.751Z,35.28
2022-12-06T14:15:19.465Z,42.88
2022-12-06T14:20:25.028Z,34.42
2022-12-06T14:25:31.621Z,34.60
2022-12-06T14:30:35.434Z,38.92
2022-12-06T14:35:40.311Z,28.67
2022-12-06T14:41:03.462Z,37.05
2022-12-06T14:46:12.000Z,36.72
2022-12-06T14:51:23.492Z,47.17
2022-12-06T14:56:33.215Z,49.53
2022-12-06T15:06:53.051Z,57.22
2022-12-06T15:12:38.201Z,55.20
2022-12-06T15:17:43.058Z,48.97
2022-12-06T15:22:46.500Z,57.15
2022-12-06T15:27:51.284Z,55.80
2022-12-06T15:32:55.743Z,56.83
2022-12-06T15:37:59.333Z,50.03
2022-12-06T15:43:04.342Z,42.40
2022-12-06T15:48:07.840Z,49.75
2022-12-06T15:53:14.636Z,98.28
2022-12-06T15:58:19.801Z,53.17
2022-12-06T16:03:23.364Z,38.42
2022-12-06T16:08:26.993Z,55.35
2022-12-06T16:13:31.909Z,36.13
2022-12-06T16:18:35.574Z,31.00
2022-12-06T16:24:13.396Z,37.92
2022-12-06T16:29:25.163Z,52.30
2022-12-06T16:34:29.706Z,43.55
2022-12-06T16:39:35.637Z,72.30
2022-12-06T16:44:51.556Z,60.00
2022-12-06T16:49:55.396Z,86.30
2022-12-06T16:54:59.256Z,43.20
2022-12-06T17:00:05.388Z,83.47
2022-12-06T17:05:09.254Z,76.18
2022-12-06T17:10:15.834Z,68.80
2022-12-06T17:15:22.521Z,41.40
2022-12-06T17:20:26.690Z,39.70
2022-12-06T17:25:30.212Z,35.88
2022-12-06T17:30:35.054Z,38.22
2022-12-06T17:35:38.710Z,51.63
2022-12-06T17:40:42.172Z,50.60
2022-12-06T17:45:47.279Z,32.55
2022-12-06T17:50:50.879Z,31.65
2022-12-06T17:55:54.523Z,33.72
2022-12-06T18:01:01.165Z,37.25
2022-12-06T18:06:10.295Z,54.75
2022-12-06T18:11:14.174Z,37.72
2022-12-06T18:16:21.435Z,34.17
2022-12-06T18:21:25.473Z,46.85
2022-12-06T18:26:28.974Z,37.22
2022-12-06T18:31:36.628Z,69.38
2022-12-06T18:36:40.693Z,92.93
2022-12-06T18:41:44.408Z,66.05
2022-12-06T18:46:52.566Z,52.08
2022-12-06T18:51:56.396Z,50.42
2022-12-06T18:57:00.011Z,64.07
2022-12-06T19:02:05.130Z,55.80
2022-12-06T19:07:08.659Z,62.65
2022-12-06T19:12:12.304Z,61.65
2022-12-06T19:17:17.310Z,70.63
2022-12-06T19:22:21.526Z,55.03
2022-12-06T19:27:25.080Z,49.30
2022-12-06T19:32:30.178Z,48.75
2022-12-06T19:37:33.667Z,53.25
2022-12-06T19:42:54.627Z,51.97
2022-12-06T19:48:00.560Z,47.10
2022-12-06T19:53:06.607Z,48.72
2022-12-06T19:58:11.732Z,70.93
2022-12-06T20:03:16.699Z,62.92
2022-12-06T20:08:20.281Z,50.80
2022-12-06T20:13:24.760Z,51.92
2022-12-06T20:18:30.442Z,46.88
2022-12-06T20:23:34.109Z,51.55
2022-12-06T20:28:37.726Z,55.10
2022-12-06T20:33:42.628Z,61.80
2022-12-06T20:38:46.516Z,54.60
2022-12-06T20:43:51.153Z,46.65
2022-12-06T20:48:57.411Z,52.47
2022-12-06T20:54:03.025Z,38.90
2022-12-06T20:59:10.153Z,49.88
2022-12-06T21:04:16.677Z,66.88
2022-12-06T21:09:20.447Z,53.92
2022-12-06T21:14:23.895Z,78.50
2022-12-06T21:19:28.703Z,37.60
2022-12-06T21:24:32.491Z,40.22
2022-12-06T21:29:36.579Z,37.45
2022-12-06T21:34:46.136Z,43.50
2022-12-06T21:39:50.106Z,37.13
2022-12-06T21:44:54.422Z,35.20
2022-12-06T21:49:59.733Z,40.40
2022-12-06T21:55:03.590Z,39.00
2022-12-06T22:00:08.375Z,34.88
2022-12-06T22:05:17.262Z,44.13
2022-12-06T22:10:20.742Z,39.22
2022-12-06T22:15:24.227Z,51.33
2022-12-06T22:20:29.029Z,48.15
2022-12-06T22:25:32.665Z,53.40
2022-12-06T22:30:36.082Z,51.97
2022-12-06T22:35:40.906Z,50.25
2022-12-06T22:40:44.350Z,47.25
2022-12-06T22:45:47.784Z,45.17
2022-12-06T22:50:52.556Z,40.80
2022-12-06T22:56:00.569Z,44.60
2022-12-06T23:01:15.876Z,42.97
2022-12-06T23:06:23.897Z,44.03
2022-12-06T23:11:29.357Z,43.17
2022-12-06T23:16:33.755Z,45.22
2022-12-06T23:21:40.838Z,44.80
2022-12-06T23:26:46.866Z,51.10
2022-12-06T23:31:50.383Z,39.78
2022-12-06T23:36:56.239Z,35.33
2022-12-06T23:41:59.683Z,34.45
2022-12-06T23:47:03.139Z,30.50
2022-12-06T23:52:07.922Z,26.58
2022-12-06T23:57:14.941Z,31.65
